Hauptseite
METAR-TAF:

METAR-TAF

Flughäfen :

Flughafen Livingstone

Livingstone, Sambia

Breite: 17-49-18S, Länge: 025-49-22E, Höhe: 991 m

METAR: fehlend

Zeit: 13:45 (11:45 UTC)

Prognose

Neuester Wetterbericht von vor 1 Stunde und 45 Minuten, um 10:00 UTC
Gültige Prognose vom 29 um 12 UTC bis 01 um 18 UTC
Wind 5 kt aus Ost
Sichtweite 10 km oder mehr
Leicht bewölkt in der Höhe von 4000 ft
Übergehend zu
vom 29 um 16 UTC bis 29 um 18 UTC
Wind 5 kt aus Süd
Sichtweite 10 km oder mehr
keine Wolken unter 1500 m und keine Kumulonimbus oder Gewitterwolken
Übergehend zu
vom 01 um 05 UTC bis 01 um 07 UTC
Wind 10 kt aus Ost/Nordost
Übergehend zu
vom 01 um 08 UTC bis 01 um 12 UTC
Wind 10 kt aus Ost/Südost
Sichtweite 10 km oder mehr
Aufgelockert bewölkt in der Höhe von 3000 ft

TAF: FLHN 291000Z 2912/0118 09005KT 9999 FEW040 BECMG 2916/2918 18005KT CAVOK BECMG 0105/0107 07010KT BECMG 0108/0112 12010KT 9999 SCT030

Wetterbeobachtungen und Prognosen von mehr als 4000 Flughäfen (METAR und TAF Bericht).

Die verfügbaren Stationen werden durch gelbe und rote Markierungen auf der Karte dargestellt.

Führen Sie die Maus auf sie, um den Namen der Station zu sehen.

Darauf klicken, um die Beobachtung von Wetterbeobachtungen und Prognosen zu sehen.

Um die Karte zu ändern : klicken Sie auf den grünen Tasten mit einem schwarzen Kreuz Zum Vergrößern, auf den grünen Button mit einem Gedankenstrich zu verkleinern, oder auf die grünen Pfeile für benachbarte Karten.


METAR-TAF: